Time;durP1;ratioP1;P1;durP2;ratioP2;P2;SDS_P1;SDS_P2;PMS_P1;PMS_P2;Temp;Humidity;BMP_temperature;BMP_pressure;BME280_temperature;BME280_humidity;BME280_pressure;Samples;Min_cycle;Max_cycle;Signal;HPM_P1;HPM_P2
2022/10/27 00:01:57;;;;;;;12.07;4.32;;;13.00;99.90;;;12.19;100.00;101164.94;4120700;28;20027;-79
2022/10/27 00:03:58;;;;;;;8.20;3.58;;;13.00;99.90;;;12.16;100.00;101166.09;4120474;28;20086;-79
2022/10/27 00:06:05;;;;;;;9.85;4.20;;;13.00;99.90;;;12.21;100.00;101178.88;4120611;28;20490;-79
2022/10/27 00:08:05;;;;;;;13.48;4.45;;;12.90;99.90;;;12.17;100.00;101186.28;4120521;28;20507;-79
2022/10/27 00:10:07;;;;;;;9.43;4.00;;;12.90;99.90;;;12.18;100.00;101182.63;4119262;28;20030;-79
2022/10/27 00:12:08;;;;;;;9.23;3.90;;;12.90;99.90;;;12.16;100.00;101181.97;4103095;29;20050;-79
2022/10/27 00:14:09;;;;;;;11.70;4.30;;;12.90;99.90;;;12.14;100.00;101172.53;4102666;29;20027;-79
2022/10/27 00:16:14;;;;;;;12.73;4.30;;;12.90;99.90;;;12.19;100.00;101175.53;4120432;28;20401;-79
2022/10/27 00:18:15;;;;;;;10.43;5.03;;;12.90;99.90;;;12.16;100.00;101160.81;4118920;28;20035;-79
2022/10/27 00:20:16;;;;;;;17.00;4.45;;;12.90;99.90;;;12.18;100.00;101165.97;4103206;29;20503;-79
2022/10/27 00:22:17;;;;;;;6.30;3.40;;;13.00;99.90;;;12.10;100.00;101156.13;4120212;28;20548;-79
2022/10/27 00:24:21;;;;;;;8.60;3.97;;;12.90;99.90;;;12.23;100.00;101182.19;4120366;28;20038;-79
2022/10/27 00:26:22;;;;;;;13.13;4.40;;;13.00;99.90;;;12.24;100.00;101186.50;4119205;28;20026;-79
2022/10/27 00:28:24;;;;;;;10.40;4.47;;;13.00;99.90;;;12.25;100.00;101180.19;4120110;28;20516;-79
2022/10/27 00:30:25;;;;;;;13.30;4.10;;;13.00;99.90;;;12.26;100.00;101179.22;4118862;28;20026;-79
2022/10/27 00:32:26;;;;;;;13.13;4.30;;;13.00;99.90;;;12.30;100.00;101187.69;4120157;28;20035;-77
2022/10/27 00:34:27;;;;;;;9.25;3.95;;;13.00;99.90;;;12.26;100.00;101176.56;4120061;28;20031;-77
2022/10/27 00:36:27;;;;;;;12.82;4.13;;;13.00;99.90;;;12.23;100.00;101168.13;4118785;28;20023;-77
2022/10/27 00:38:28;;;;;;;10.18;3.95;;;13.00;99.90;;;12.17;100.00;101157.19;4120262;28;20023;-77
2022/10/27 00:40:36;;;;;;;13.32;4.72;;;13.00;99.90;;;12.24;100.00;101167.16;4102742;29;20079;-77
2022/10/27 00:42:37;;;;;;;8.13;3.60;;;12.90;99.90;;;12.23;100.00;101154.91;4118943;28;20457;-77
2022/10/27 00:44:44;;;;;;;11.82;3.40;;;13.00;99.90;;;12.30;100.00;101162.06;4119330;28;20023;-77
2022/10/27 00:46:46;;;;;;;7.15;4.03;;;13.00;99.90;;;12.33;100.00;101155.63;4119871;28;20031;-77
2022/10/27 00:48:50;;;;;;;9.75;4.00;;;13.00;99.90;;;12.32;100.00;101146.84;4119976;28;20053;-77
2022/10/27 00:50:52;;;;;;;15.05;4.45;;;13.10;99.90;;;12.38;100.00;101148.03;4118915;28;20031;-77
2022/10/27 00:52:59;;;;;;;12.98;4.15;;;13.10;99.90;;;12.42;100.00;101144.09;4118765;28;20035;-77
2022/10/27 00:55:23;;;;;;;13.63;3.35;;;13.20;99.90;;;12.53;100.00;101149.09;4119854;28;20031;-77
2022/10/27 00:57:26;;;;;;;11.68;4.25;;;13.20;99.90;;;12.55;100.00;101149.75;4120146;28;20027;-77
2022/10/27 00:59:27;;;;;;;9.43;3.40;;;13.20;99.90;;;12.55;100.00;101153.25;4102416;29;20024;-77
2022/10/27 01:01:28;;;;;;;11.18;3.72;;;13.20;99.90;;;12.53;100.00;101147.28;4102625;29;20027;-77
2022/10/27 01:03:29;;;;;;;6.03;3.10;;;13.20;99.90;;;12.52;100.00;101142.97;4118941;28;20031;-77
2022/10/27 01:05:31;;;;;;;7.63;3.50;;;13.20;99.90;;;12.47;100.00;101136.50;4102940;29;20027;-77
2022/10/27 01:07:32;;;;;;;10.90;3.20;;;13.20;99.90;;;12.47;100.00;101137.34;4103982;28;20534;-77
2022/10/27 01:09:33;;;;;;;10.18;3.67;;;13.20;99.90;;;12.45;100.00;101139.31;4121817;28;20041;-77
2022/10/27 01:11:34;;;;;;;9.15;3.05;;;13.20;99.90;;;12.42;100.00;101133.50;4123151;28;20031;-77
2022/10/27 01:13:36;;;;;;;8.80;3.05;;;13.20;99.90;;;12.40;100.00;101135.47;4121875;28;20031;-77
2022/10/27 01:16:21;;;;;;;7.53;2.92;;;13.10;99.90;;;12.40;100.00;101132.81;4121960;28;20023;-77
2022/10/27 01:18:53;;;;;;;7.70;3.25;;;13.10;99.90;;;12.35;100.00;101116.59;4110196;28;20467;-77
2022/10/27 01:21:25;;;;;;;7.90;2.80;;;13.10;99.90;;;12.35;100.00;101121.91;4121676;28;20409;-77
2022/10/27 01:23:58;;;;;;;8.82;3.45;;;13.10;99.90;;;12.32;100.00;101123.03;4122934;28;20045;-77
2022/10/27 01:26:44;;;;;;;8.35;3.65;;;13.00;99.90;;;12.31;100.00;101112.59;4122773;28;20115;-77
2022/10/27 01:29:09;;;;;;;11.00;3.28;;;13.10;99.90;;;12.31;100.00;101109.97;4105189;29;20058;-77
2022/10/27 01:31:19;;;;;;;8.73;3.08;;;13.10;99.90;;;12.28;100.00;101103.19;4123063;28;20117;-77
2022/10/27 01:33:30;;;;;;;9.82;3.47;;;13.10;99.90;;;12.34;100.00;101105.19;4121864;28;20046;-77
2022/10/27 01:36:01;;;;;;;9.95;3.30;;;13.10;99.90;;;12.39;100.00;101096.78;4121592;28;20042;-77
2022/10/27 01:38:52;;;;;;;11.77;3.13;;;13.20;99.90;;;12.45;100.00;101096.16;4121325;28;20514;-77
2022/10/27 01:41:15;;;;;;;6.63;2.90;;;13.20;99.90;;;12.49;100.00;101093.00;4104964;29;20050;-77
2022/10/27 01:43:24;;;;;;;11.25;3.47;;;13.20;99.90;;;12.52;100.00;101091.88;4122431;28;20494;-77
2022/10/27 01:45:30;;;;;;;12.35;3.88;;;13.20;99.90;;;12.54;100.00;101081.97;4121144;28;20035;-77
2022/10/27 01:47:31;;;;;;;8.70;3.92;;;13.30;99.90;;;12.56;100.00;101082.63;4121601;28;20466;-77
2022/10/27 01:49:37;;;;;;;8.18;3.45;;;13.30;99.90;;;12.55;100.00;101071.22;4121367;28;20031;-77
2022/10/27 01:51:38;;;;;;;7.95;3.17;;;13.40;99.90;;;12.60;100.00;101073.38;4121226;28;20470;-77
2022/10/27 01:53:48;;;;;;;7.55;3.00;;;13.40;99.90;;;12.61;100.00;101064.44;4121278;28;20042;-77
2022/10/27 01:56:11;;;;;;;9.52;3.05;;;13.40;99.90;;;12.57;100.00;101063.94;4105514;28;20102;-77
2022/10/27 01:58:25;;;;;;;12.65;3.60;;;13.30;99.90;;;12.59;100.00;101067.25;4120953;28;20116;-77
2022/10/27 02:00:26;;;;;;;7.00;3.00;;;13.30;99.90;;;12.60;100.00;101052.22;4105144;29;20035;-77
2022/10/27 02:02:56;;;;;;;10.35;3.90;;;13.30;99.90;;;12.61;100.00;101053.84;4122359;28;20379;-77
2022/10/27 02:05:17;;;;;;;6.25;2.63;;;13.30;99.90;;;12.64;100.00;101048.25;4120403;28;20031;-77
2022/10/27 02:07:49;;;;;;;9.13;3.22;;;13.30;99.90;;;12.64;100.00;101050.88;4122406;28;20034;-77
2022/10/27 02:10:09;;;;;;;8.07;2.88;;;13.40;99.90;;;12.71;100.00;101051.91;4121168;28;20065;-77
2022/10/27 02:12:30;;;;;;;8.98;3.50;;;13.40;99.90;;;12.73;100.00;101052.56;4104456;29;20019;-77
2022/10/27 02:14:33;;;;;;;7.93;2.97;;;13.50;99.90;;;12.74;100.00;101047.13;4104212;29;20071;-77
2022/10/27 02:16:46;;;;;;;11.57;3.35;;;13.50;99.90;;;12.81;100.00;101041.19;4105178;28;20031;-77
2022/10/27 02:19:02;;;;;;;9.95;3.03;;;13.50;99.90;;;12.80;100.00;101039.50;4121435;28;20127;-77
2022/10/27 02:21:08;;;;;;;8.02;3.10;;;13.60;99.90;;;12.83;100.00;101033.88;4104963;29;20033;-77
2022/10/27 02:23:16;;;;;;;5.78;2.75;;;13.60;99.90;;;12.90;100.00;101040.19;4121017;28;20027;-77
2022/10/27 02:25:23;;;;;;;4.97;2.90;;;13.60;99.90;;;12.92;100.00;101049.63;4120732;28;20031;-77
2022/10/27 02:27:47;;;;;;;8.15;2.70;;;13.60;99.90;;;12.92;100.00;101043.50;4104553;28;20023;-77
2022/10/27 02:29:55;;;;;;;7.30;3.30;;;13.70;99.90;;;12.95;100.00;101041.34;4120436;28;20029;-77
2022/10/27 02:31:59;;;;;;;9.27;3.08;;;13.70;99.90;;;12.96;100.00;101043.00;4120723;28;20445;-77
2022/10/27 02:34:02;;;;;;;11.90;3.92;;;13.70;99.90;;;13.05;100.00;101065.03;4088930;29;20517;-77
2022/10/27 02:36:04;;;;;;;6.97;3.28;;;13.80;99.90;;;13.11;100.00;101086.41;4104618;29;20019;-77
2022/10/27 02:38:05;;;;;;;7.78;3.08;;;13.80;99.90;;;13.12;100.00;101106.63;4104606;29;20081;-77
2022/10/27 02:40:07;;;;;;;8.00;3.55;;;13.80;99.90;;;13.19;100.00;101150.03;4101790;29;20162;-77
2022/10/27 02:42:08;;;;;;;5.97;2.85;;;13.90;99.90;;;13.20;100.00;101177.34;4108194;28;20027;-77
2022/10/27 02:44:09;;;;;;;6.32;3.15;;;13.90;99.90;;;13.30;100.00;101194.75;4121644;28;20081;-77
2022/10/27 02:46:10;;;;;;;7.70;3.47;;;14.00;99.90;;;13.42;100.00;101224.41;4120270;28;20047;-77
2022/10/27 02:48:11;;;;;;;8.27;2.63;;;14.00;99.90;;;13.36;100.00;101198.56;4113485;28;20094;-77
2022/10/27 02:50:12;;;;;;;9.32;3.55;;;14.10;99.90;;;13.45;100.00;101212.66;4108881;28;20030;-77
2022/10/27 02:52:13;;;;;;;9.25;3.30;;;14.10;99.90;;;13.46;100.00;101214.31;4121632;28;20027;-77
2022/10/27 02:54:14;;;;;;;8.77;3.03;;;14.20;99.90;;;13.44;100.00;101203.06;4104455;29;20038;-77
2022/10/27 02:56:15;;;;;;;11.23;3.15;;;14.20;99.90;;;13.49;100.00;101206.03;4104334;29;20419;-77
2022/10/27 02:58:16;;;;;;;10.85;3.22;;;14.20;99.90;;;13.53;100.00;101178.22;4104169;29;20035;-77
2022/10/27 03:00:17;;;;;;;8.00;3.40;;;14.20;99.90;;;13.71;100.00;101192.97;4121689;28;20117;-77
2022/10/27 03:02:18;;;;;;;7.68;3.25;;;14.30;99.90;;;13.77;100.00;101171.09;4121364;28;20038;-77
2022/10/27 03:04:19;;;;;;;6.78;3.30;;;14.40;99.90;;;13.86;100.00;101164.78;4120305;28;20113;-77
2022/10/27 03:06:20;;;;;;;8.95;3.22;;;14.50;99.90;;;13.96;100.00;101172.56;4120154;28;20564;-77
2022/10/27 03:08:21;;;;;;;9.52;4.07;;;14.60;99.90;;;13.97;100.00;101160.97;4121514;28;20034;-77
2022/10/27 03:10:21;;;;;;;7.00;3.28;;;14.60;99.90;;;14.06;100.00;101159.13;4121095;28;20110;-77
2022/10/27 03:12:22;;;;;;;12.52;4.07;;;14.70;99.90;;;14.14;100.00;101156.47;4120165;28;20034;-77
2022/10/27 03:14:23;;;;;;;9.88;3.35;;;14.70;99.90;;;14.28;100.00;101140.66;4103838;29;20042;-77
2022/10/27 03:16:24;;;;;;;10.43;3.28;;;14.80;99.90;;;14.26;100.00;101126.75;4120131;28;20019;-77
2022/10/27 03:18:25;;;;;;;12.43;3.60;;;14.90;99.90;;;14.30;100.00;101106.84;4121203;28;20161;-77
2022/10/27 03:20:26;;;;;;;8.35;3.45;;;14.90;99.90;;;14.40;100.00;101104.00;4121487;28;20069;-77
2022/10/27 03:22:27;;;;;;;8.70;3.10;;;15.00;99.90;;;14.45;100.00;101100.84;4121105;28;20031;-77
2022/10/27 03:24:28;;;;;;;8.02;3.40;;;15.10;99.90;;;14.46;100.00;101086.56;4121138;28;20502;-77
2022/10/27 03:26:28;;;;;;;9.05;3.08;;;15.10;99.90;;;14.52;100.00;101086.69;4120924;28;20406;-77
2022/10/27 03:28:33;;;;;;;9.23;3.08;;;15.20;99.90;;;14.52;100.00;101070.78;4103500;28;20047;-77
2022/10/27 03:30:34;;;;;;;10.35;3.85;;;15.20;99.90;;;14.58;100.00;101062.13;4120729;28;20035;-77
2022/10/27 03:32:35;;;;;;;9.60;3.47;;;15.20;99.90;;;14.59;100.00;101054.97;4121288;28;20035;-77
2022/10/27 03:34:36;;;;;;;6.78;3.42;;;15.30;99.90;;;14.54;100.00;101062.66;4119728;28;20113;-77
2022/10/27 03:36:37;;;;;;;7.82;3.40;;;15.30;99.90;;;14.54;100.00;101060.00;4120846;28;20046;-77
2022/10/27 03:38:38;;;;;;;6.90;3.13;;;15.30;99.90;;;14.55;100.00;101058.97;4119536;28;20085;-77
2022/10/27 03:40:39;;;;;;;6.93;3.10;;;15.30;99.90;;;14.51;100.00;101055.88;4120869;28;20018;-77
2022/10/27 03:42:43;;;;;;;10.90;4.00;;;15.30;99.90;;;14.54;100.00;101052.88;4119826;28;20031;-77
2022/10/27 03:44:43;;;;;;;7.65;3.38;;;15.30;99.90;;;14.48;100.00;101044.75;4119297;28;20035;-77
2022/10/27 03:46:44;;;;;;;7.93;3.22;;;15.20;99.90;;;14.50;100.00;101042.75;4120634;28;20406;-77
2022/10/27 03:48:45;;;;;;;6.95;3.38;;;15.20;99.90;;;14.49;100.00;101039.25;4119646;28;20050;-77
2022/10/27 03:50:49;;;;;;;7.75;3.38;;;15.20;99.90;;;14.47;100.00;101046.59;4120847;28;20026;-77
2022/10/27 03:52:50;;;;;;;8.30;3.55;;;15.20;99.90;;;14.48;100.00;101073.97;4119513;28;20502;-77
2022/10/27 03:54:51;;;;;;;7.85;3.47;;;15.20;99.90;;;14.43;100.00;101077.13;4119232;28;20047;-77
2022/10/27 03:56:52;;;;;;;7.13;3.00;;;15.20;99.90;;;14.48;100.00;101097.84;4120695;28;20031;-77
2022/10/27 03:58:52;;;;;;;8.45;4.22;;;15.20;99.90;;;14.48;100.00;101085.41;4119402;28;20044;-77
2022/10/27 04:00:53;;;;;;;8.38;3.35;;;15.20;99.90;;;14.46;100.00;101081.25;4120303;28;20022;-77
2022/10/27 04:02:54;;;;;;;6.75;3.40;;;15.20;99.90;;;14.47;100.00;101067.81;4119071;28;20486;-77
2022/10/27 04:04:56;;;;;;;4.93;2.70;;;15.20;99.90;;;14.46;100.00;101070.63;4120685;28;20085;-77
2022/10/27 04:06:57;;;;;;;15.65;3.65;;;15.20;99.90;;;14.41;100.00;101057.88;4120582;28;20019;-77
2022/10/27 04:08:58;;;;;;;8.70;4.32;;;15.20;99.90;;;14.43;100.00;101058.53;4120777;28;20034;-77
2022/10/27 04:10:58;;;;;;;8.57;4.00;;;15.10;99.90;;;14.39;100.00;101060.69;4120475;28;20026;-77
2022/10/27 04:12:59;;;;;;;10.05;4.00;;;15.20;99.90;;;14.44;100.00;101067.34;4120358;28;20042;-77
2022/10/27 04:15:00;;;;;;;11.27;3.63;;;15.10;99.90;;;14.41;100.00;101057.88;4120120;28;20457;-77
2022/10/27 04:17:01;;;;;;;10.98;3.50;;;15.10;99.90;;;14.42;100.00;101064.03;4103110;29;20554;-77
2022/10/27 04:19:02;;;;;;;7.32;3.33;;;15.20;99.90;;;14.35;100.00;101074.50;4119077;28;20023;-77
2022/10/27 04:21:05;;;;;;;9.10;3.50;;;15.10;99.90;;;14.40;100.00;101096.03;4102677;29;20023;-77
2022/10/27 04:23:06;;;;;;;7.88;3.53;;;15.10;99.90;;;14.42;100.00;101112.66;4111534;28;20392;-77
2022/10/27 04:25:07;;;;;;;7.20;3.67;;;15.10;99.90;;;14.44;100.00;101129.22;4119069;28;20042;-77
2022/10/27 04:27:08;;;;;;;11.23;3.80;;;15.20;99.90;;;14.39;100.00;101128.91;4120081;28;20062;-77
2022/10/27 04:29:09;;;;;;;7.85;4.32;;;15.10;99.90;;;14.42;100.00;101148.97;4118621;28;20427;-77
2022/10/27 04:31:11;;;;;;;13.48;4.03;;;15.10;99.90;;;14.44;100.00;101152.28;4119081;28;20034;-77
2022/10/27 04:33:12;;;;;;;9.48;4.18;;;15.10;99.90;;;14.41;100.00;101148.13;4120062;28;20089;-78
2022/10/27 04:35:12;;;;;;;8.82;3.67;;;15.10;99.90;;;14.41;100.00;101150.78;4118931;28;20114;-77
2022/10/27 04:37:13;;;;;;;7.75;3.58;;;15.10;99.90;;;14.38;100.00;101122.75;4120190;28;20034;-77
2022/10/27 04:39:14;;;;;;;15.45;4.30;;;15.10;99.90;;;14.38;100.00;101113.97;4119090;28;20027;-78
2022/10/27 04:41:15;;;;;;;6.18;3.28;;;15.10;99.90;;;14.34;100.00;101100.22;4125882;28;20030;-78
2022/10/27 04:43:16;;;;;;;6.70;3.10;;;15.10;99.90;;;14.34;100.00;101094.91;4123132;28;20394;-77
2022/10/27 04:45:18;;;;;;;10.10;3.78;;;15.10;99.90;;;14.27;100.00;101082.47;4119669;28;20041;-77
2022/10/27 04:47:18;;;;;;;8.90;3.90;;;15.10;99.90;;;14.31;100.00;101089.06;4120198;28;20034;-77
2022/10/27 04:49:19;;;;;;;11.85;4.55;;;15.10;99.90;;;14.27;100.00;101090.44;4118762;28;20030;-77
2022/10/27 04:51:20;;;;;;;10.35;3.53;;;15.00;99.90;;;14.25;100.00;101087.94;4120046;28;20022;-77
2022/10/27 04:53:21;;;;;;;8.90;3.47;;;15.00;99.90;;;14.27;100.00;101096.56;4102737;29;20023;-77
2022/10/27 04:55:23;;;;;;;4.63;3.63;;;15.00;99.90;;;14.27;100.00;101087.78;4120020;28;20027;-77
2022/10/27 04:57:24;;;;;;;9.63;3.22;;;15.00;99.90;;;14.24;100.00;101082.81;4118823;28;20085;-77
2022/10/27 04:59:25;;;;;;;7.00;3.45;;;15.00;99.90;;;14.23;100.00;101070.53;4102542;28;20515;-77
2022/10/27 05:01:26;;;;;;;8.73;3.58;;;15.00;99.90;;;14.18;100.00;101067.59;4119710;28;20038;-77
2022/10/27 05:03:26;;;;;;;7.70;3.05;;;14.90;99.90;;;14.16;100.00;101054.47;4119767;28;20054;-77
2022/10/27 05:05:28;;;;;;;10.57;3.60;;;14.90;99.90;;;14.19;100.00;101064.75;4102737;29;20019;-77
2022/10/27 05:07:29;;;;;;;7.57;3.13;;;14.90;99.90;;;14.13;100.00;101065.44;4118726;28;20567;-77
2022/10/27 05:09:30;;;;;;;6.20;2.90;;;14.90;99.90;;;14.18;100.00;101070.22;4119815;28;20027;-77
2022/10/27 05:11:31;;;;;;;7.93;3.70;;;14.90;99.90;;;14.19;100.00;101078.00;4118777;28;20038;-77
2022/10/27 05:13:32;;;;;;;10.63;4.53;;;14.90;99.90;;;14.21;100.00;101088.47;4118596;28;20092;-77
2022/10/27 05:15:33;;;;;;;8.43;4.53;;;14.90;99.90;;;14.18;100.00;101084.34;4102700;29;20094;-77
2022/10/27 05:17:36;;;;;;;9.18;4.40;;;14.90;99.90;;;14.17;100.00;101076.53;4102457;29;20092;-77
2022/10/27 05:19:37;;;;;;;6.80;3.47;;;14.90;99.90;;;14.11;100.00;101070.09;4118595;28;20102;-77
2022/10/27 05:21:38;;;;;;;5.15;3.33;;;14.80;99.90;;;14.11;100.00;101072.75;4118641;28;20490;-77
2022/10/27 05:23:39;;;;;;;10.35;4.10;;;14.80;99.90;;;14.08;100.00;101065.13;4102524;28;20027;-77
2022/10/27 05:25:39;;;;;;;9.77;3.90;;;14.80;99.90;;;14.10;100.00;101063.13;4119630;28;20023;-77
2022/10/27 05:27:40;;;;;;;7.57;4.03;;;14.80;99.90;;;14.09;100.00;101074.75;4118334;28;20565;-77
2022/10/27 05:29:41;;;;;;;13.90;4.72;;;14.80;99.90;;;14.13;100.00;101081.34;4119559;28;20065;-77
2022/10/27 05:31:42;;;;;;;7.93;4.68;;;14.80;99.90;;;14.07;100.00;101079.38;4119805;28;20035;-77
2022/10/27 05:33:43;;;;;;;9.90;3.58;;;14.80;99.90;;;14.04;100.00;101066.44;4118322;28;20030;-77
2022/10/27 05:35:44;;;;;;;6.82;3.75;;;14.80;99.90;;;14.04;100.00;101074.41;4102605;29;20462;-77
2022/10/27 05:37:46;;;;;;;15.60;4.68;;;14.70;99.90;;;14.03;100.00;101080.72;4119638;28;20023;-77
2022/10/27 05:39:47;;;;;;;10.27;4.38;;;14.70;99.90;;;14.00;100.00;101073.09;4119536;28;20031;-77
2022/10/27 05:41:47;;;;;;;13.55;5.05;;;14.80;99.90;;;13.98;100.00;101072.44;4119528;28;20482;-78
2022/10/27 05:43:48;;;;;;;6.53;3.83;;;14.70;99.90;;;13.93;100.00;101068.63;4117948;28;20066;-77
2022/10/27 05:45:50;;;;;;;7.18;4.00;;;14.70;99.90;;;13.91;100.00;101071.47;4102137;29;20024;-78
2022/10/27 05:48:08;;;;;;;6.40;3.83;;;14.60;99.90;;;13.85;100.00;101072.97;4102433;29;20402;-77
2022/10/27 05:50:09;;;;;;;11.38;5.10;;;14.60;99.90;;;13.76;100.00;101063.38;4117354;28;20041;-77
2022/10/27 05:52:10;;;;;;;9.38;4.15;;;14.50;99.90;;;13.73;100.00;101061.06;4118393;28;20031;-77
2022/10/27 05:54:11;;;;;;;6.25;3.30;;;14.50;99.90;;;13.70;100.00;101073.84;4120046;28;20042;-77
2022/10/27 05:56:12;;;;;;;13.73;4.65;;;14.50;99.90;;;13.67;100.00;101075.00;4105105;29;20023;-77
2022/10/27 05:58:13;;;;;;;10.23;4.55;;;14.40;99.90;;;13.68;100.00;101084.59;4121987;28;20023;-78
2022/10/27 06:00:14;;;;;;;12.40;4.50;;;14.40;99.90;;;13.62;100.00;101085.25;4118119;28;20027;-78
2022/10/27 06:02:14;;;;;;;11.90;5.40;;;14.40;99.90;;;13.66;100.00;101081.28;4104699;29;20487;-77
2022/10/27 06:04:15;;;;;;;13.32;5.72;;;14.40;99.90;;;13.65;100.00;101087.56;4104753;29;20495;-77
2022/10/27 06:06:16;;;;;;;7.80;4.40;;;14.40;99.90;;;13.68;100.00;101089.91;4121777;28;20039;-77
2022/10/27 06:08:19;;;;;;;11.55;5.25;;;14.40;99.90;;;13.64;100.00;101078.00;4112470;28;20070;-77
2022/10/27 06:10:20;;;;;;;9.98;4.97;;;14.40;99.90;;;13.63;100.00;101084.28;4121129;28;20097;-77
2022/10/27 06:12:20;;;;;;;7.53;4.80;;;14.40;99.90;;;13.62;100.00;101090.56;4122283;28;20035;-77
2022/10/27 06:14:21;;;;;;;14.13;5.88;;;14.30;99.90;;;13.65;100.00;101092.06;4121379;28;20034;-77
2022/10/27 06:16:26;;;;;;;14.27;5.07;;;14.40;99.90;;;13.64;100.00;101088.59;4121552;28;20034;-78
2022/10/27 06:18:26;;;;;;;13.20;4.78;;;14.40;99.90;;;13.52;100.00;101081.13;4113267;28;20038;-77
2022/10/27 06:20:28;;;;;;;12.48;5.43;;;14.30;99.90;;;13.56;100.00;101098.38;4122071;28;20402;-77
2022/10/27 06:22:29;;;;;;;8.60;4.75;;;14.30;99.90;;;13.50;100.00;101094.53;4121866;28;20022;-77
2022/10/27 06:24:30;;;;;;;12.40;5.53;;;14.30;99.90;;;13.46;100.00;101092.41;4122057;28;20042;-77
2022/10/27 06:26:31;;;;;;;13.05;5.40;;;14.20;99.90;;;13.42;100.00;101096.38;4120782;28;20458;-78
2022/10/27 06:28:32;;;;;;;11.43;5.80;;;14.20;99.90;;;13.39;100.00;101091.41;4104661;29;20058;-77
2022/10/27 06:30:33;;;;;;;9.02;5.00;;;14.20;99.90;;;13.34;100.00;101094.56;4104552;29;20059;-77
2022/10/27 06:32:38;;;;;;;9.40;5.22;;;14.10;99.90;;;13.29;100.00;101095.03;4120925;28;20034;-77
2022/10/27 06:34:39;;;;;;;8.43;4.53;;;14.10;99.90;;;13.28;100.00;101100.53;4120634;28;20022;-77
2022/10/27 06:36:39;;;;;;;12.27;5.15;;;14.00;99.90;;;13.27;100.00;101112.09;4120412;28;20112;-77
2022/10/27 06:38:40;;;;;;;8.60;4.25;;;14.00;99.90;;;13.27;100.00;101107.63;4121586;28;20023;-77
2022/10/27 06:40:43;;;;;;;9.60;4.70;;;14.00;99.90;;;13.26;100.00;101103.31;4104899;29;20027;-77
2022/10/27 06:42:45;;;;;;;15.32;5.68;;;14.00;99.90;;;13.31;100.00;101105.50;4120651;28;20576;-77
2022/10/27 06:44:47;;;;;;;12.75;4.97;;;14.00;99.90;;;13.28;100.00;101122.53;4120184;28;20026;-77
2022/10/27 06:46:48;;;;;;;12.88;5.07;;;14.00;99.90;;;13.27;100.00;101120.03;4120460;28;20545;-77
2022/10/27 06:48:49;;;;;;;8.50;4.43;;;14.00;99.90;;;13.22;100.00;101122.38;4121686;28;20031;-77
2022/10/27 06:50:49;;;;;;;10.75;5.43;;;14.00;99.90;;;13.26;100.00;101127.16;4121420;28;20034;-77
2022/10/27 06:52:50;;;;;;;13.02;4.90;;;14.00;99.90;;;13.32;100.00;101129.16;4120339;28;20035;-77
2022/10/27 06:54:51;;;;;;;9.68;5.13;;;14.00;99.90;;;13.35;100.00;101127.19;4121245;28;20037;-76
2022/10/27 06:56:52;;;;;;;12.85;5.50;;;14.00;99.90;;;13.39;100.00;101125.84;4103901;29;20035;-77
2022/10/27 06:58:53;;;;;;;12.27;6.55;;;14.10;99.90;;;13.43;100.00;101120.06;4104117;29;20093;-77
2022/10/27 07:00:54;;;;;;;12.32;5.63;;;14.20;99.90;;;13.43;100.00;101122.72;4104349;29;20031;-77
2022/10/27 07:02:55;;;;;;;11.10;6.15;;;14.20;99.90;;;13.53;100.00;101126.00;4125226;28;20023;-77
2022/10/27 07:04:56;;;;;;;10.75;5.05;;;14.30;99.90;;;13.58;100.00;101128.19;4120090;28;20045;-77
2022/10/27 07:06:57;;;;;;;11.18;5.10;;;14.30;99.90;;;13.59;100.00;101132.50;4121534;28;20033;-76
2022/10/27 07:08:58;;;;;;;11.32;5.75;;;14.30;99.90;;;13.65;100.00;101140.59;4118470;28;20037;-77
2022/10/27 07:11:05;;;;;;;8.65;5.57;;;14.30;99.90;;;13.69;100.00;101139.28;4118639;28;20502;-76
2022/10/27 07:13:06;;;;;;;11.18;4.90;;;14.40;99.90;;;13.73;100.00;101145.09;4118943;28;20115;-76
2022/10/27 07:15:07;;;;;;;11.82;5.47;;;14.40;99.90;;;13.76;100.00;101152.69;4120569;28;20067;-76
2022/10/27 07:17:08;;;;;;;8.10;4.93;;;14.50;99.90;;;13.78;100.00;101156.00;4120625;28;20029;-76
2022/10/27 07:19:09;;;;;;;15.43;5.95;;;14.50;99.90;;;13.84;100.00;101171.25;4119466;28;20023;-76
2022/10/27 07:21:09;;;;;;;10.95;5.82;;;14.60;99.90;;;13.86;100.00;101163.94;4119381;28;20505;-78
2022/10/27 07:23:11;;;;;;;14.02;6.38;;;14.60;99.90;;;13.91;100.00;101169.59;4120583;28;20027;-77
2022/10/27 07:25:12;;;;;;;14.32;5.93;;;14.60;99.90;;;13.97;100.00;101170.75;4103411;29;20031;-78
2022/10/27 07:27:12;;;;;;;9.57;5.32;;;14.60;99.90;;;14.00;100.00;101165.94;4120246;28;20030;-78
2022/10/27 07:29:13;;;;;;;12.63;5.60;;;14.70;99.90;;;14.06;100.00;101173.25;4118978;28;20047;-77
2022/10/27 07:31:14;;;;;;;13.50;5.53;;;14.80;99.90;;;14.14;100.00;101191.78;4102942;29;20019;-76
2022/10/27 07:33:15;;;;;;;10.93;5.85;;;14.80;99.90;;;14.20;100.00;101193.78;4103059;29;20042;-79
2022/10/27 07:35:16;;;;;;;13.07;6.00;;;14.90;99.90;;;14.24;100.00;101184.47;4120412;28;20023;-79
2022/10/27 07:37:17;;;;;;;8.77;5.00;;;14.90;99.90;;;14.28;100.00;101184.94;4120187;28;20023;-78
2022/10/27 07:39:18;;;;;;;10.05;5.72;;;15.00;99.90;;;14.37;100.00;101183.97;4119310;28;20027;-78
2022/10/27 07:41:20;;;;;;;8.73;5.93;;;15.10;99.90;;;14.40;100.00;101176.50;4102989;29;20079;-78
2022/10/27 07:43:20;;;;;;;9.25;5.78;;;15.10;99.90;;;14.50;100.00;101189.59;4115833;28;20081;-78
2022/10/27 07:45:25;;;;;;;16.33;5.97;;;15.20;99.90;;;14.52;100.00;101178.78;4102801;29;20515;-78
2022/10/27 07:47:25;;;;;;;;;;;15.20;99.90;;;14.48;100.00;101174.81;4110668;28;20069;-78
2022/10/27 07:49:26;;;;;;;14.95;5.25;;;15.20;99.90;;;14.45;100.00;101176.00;4119064;28;19910;-79
2022/10/27 07:51:27;;;;;;;15.55;5.35;;;15.20;99.90;;;14.43;100.00;101177.97;4119824;28;20035;-78
2022/10/27 07:53:28;;;;;;;9.73;4.90;;;15.20;99.90;;;14.38;100.00;101181.16;4120058;28;20023;-78
2022/10/27 07:55:31;;;;;;;12.20;4.97;;;15.10;99.90;;;14.36;100.00;101172.53;4119947;28;20031;-78
2022/10/27 07:57:32;;;;;;;14.35;6.40;;;15.10;99.90;;;14.33;100.00;101166.75;4118889;28;20023;-79
2022/10/27 07:59:33;;;;;;;18.15;6.25;;;15.10;99.90;;;14.38;100.00;101178.50;4100732;29;20035;-77
2022/10/27 08:01:34;;;;;;;14.70;5.32;;;15.10;99.90;;;14.31;100.00;101177.47;4119976;28;20023;-81
2022/10/27 08:03:35;;;;;;;20.05;6.90;;;15.10;99.90;;;14.33;100.00;101170.22;4118570;28;20126;-77
2022/10/27 08:05:36;;;;;;;16.73;5.95;;;15.10;99.90;;;14.35;100.00;101185.97;4119751;28;20525;-77
2022/10/27 08:07:37;;;;;;;14.02;6.40;;;15.10;99.90;;;14.38;100.00;101175.84;4118883;28;20474;-77
2022/10/27 08:09:38;;;;;;;12.23;6.47;;;15.10;99.90;;;14.48;100.00;101174.81;4102242;29;20035;-77
2022/10/27 08:11:39;;;;;;;20.77;7.07;;;15.20;99.90;;;14.52;100.00;101170.81;4117534;28;20034;-78
2022/10/27 08:13:41;;;;;;;10.63;5.78;;;15.20;99.90;;;14.57;100.00;101185.25;4118309;28;20035;-78
2022/10/27 08:15:42;;;;;;;16.65;5.85;;;15.30;99.90;;;14.58;100.00;101191.38;4102288;29;20031;-78
2022/10/27 08:17:43;;;;;;;15.80;7.20;;;15.30;99.90;;;14.66;100.00;101202.81;4102057;28;20019;-78
2022/10/27 08:19:44;;;;;;;19.92;7.03;;;15.40;99.90;;;14.72;100.00;101209.28;4119851;28;20038;-77
2022/10/27 08:21:44;;;;;;;21.67;8.07;;;15.40;99.90;;;14.82;100.00;101220.50;4117685;28;20022;-77
2022/10/27 08:23:45;;;;;;;19.65;6.72;;;15.50;99.90;;;14.83;100.00;101206.22;4102628;29;20031;-77
2022/10/27 08:25:46;;;;;;;15.63;6.20;;;15.50;99.90;;;14.93;100.00;101204.22;4119597;28;20034;-78
2022/10/27 08:27:47;;;;;;;21.92;7.00;;;15.60;99.90;;;15.05;100.00;101202.00;4119696;28;20057;-77